1988 RUBY (1988295N10138)


On this page: IBTrACS data - Map and Plots - Positions - Intensities - Original source data

Summary

Start Oct 20
End Oct 29
Basin WP
LMI 125 kt
Sources jtwc_wp
tokyo
cma
hko
td9636
In WMO? Yes
Previous storm 1988 MISSING (NI)
Previous in basin 1988 PAT (WP)
Concurrent storms 1988 JOAN (NA)
1988 PAT (WP)
1988 RUBY (WP)
Next in basin 1988 TESS (WP)
Next storm 1989 ADELININA (SI)

top of page IBTrACS Data: File Access

top of page HURSAT Data: File Access

Image of storm

top of page Plots:

Map of storm track will not appear if FTP is down
Time series of cyclone Maximum Sustained Wind will not appear if FTP is down
Time series of cyclone Minimum Central Pressure will not appear if FTP is down

top of page Track Data:Position

jtwc_wp tokyo cma hko td9636
Date Lat Lon Lat Lon Lat Lon Lat Lon Lat Lon
1988-10-20 12:00:00 10.0 138.0 10.0 138.0
1988-10-20 18:00:00 10.0 137.4 10.0 137.5 10.0 137.4
1988-10-21 00:00:00 10.0 136.8 10.0 137.0 10.2 138.0 10.0 136.8
1988-10-21 06:00:00 10.0 136.3 10.0 136.5 10.0 137.0 10.1 136.5 10.0 136.3
1988-10-21 12:00:00 9.9 135.9 10.0 135.5 9.9 136.1 9.8 135.5 9.9 135.9
1988-10-21 18:00:00 9.7 135.4 9.7 135.2 9.7 135.3 9.5 135.3 9.7 135.4
1988-10-22 00:00:00 9.5 134.8 9.3 135.0 9.4 134.9 9.1 135.1 9.5 134.8
1988-10-22 06:00:00 9.5 134.1 9.2 134.4 9.2 134.0 9.1 134.2 9.4 134.1
1988-10-22 12:00:00 9.6 133.2 9.3 133.8 9.6 133.3 9.4 133.4 9.6 133.2
1988-10-22 18:00:00 10.0 132.2 10.1 132.7 10.1 132.4 10.1 132.5 10.0 132.2
1988-10-23 00:00:00 10.7 131.0 10.6 131.0 10.5 131.0 10.6 131.1 10.7 131.0
1988-10-23 06:00:00 11.1 129.6 10.8 129.6 10.8 129.6 10.8 129.6 11.1 129.6
1988-10-23 12:00:00 11.5 128.2 11.4 128.2 11.4 128.2 11.2 128.2 11.5 128.2
1988-10-23 18:00:00 12.2 126.7 11.9 126.9 11.9 126.9 11.9 126.9 12.1 126.8
1988-10-24 00:00:00 12.9 125.4 12.5 125.8 12.6 125.7 12.6 125.6 12.9 125.4
1988-10-24 06:00:00 13.8 124.1 13.7 124.5 13.8 124.2 14.1 124.4 13.8 124.1
1988-10-24 12:00:00 14.6 122.8 14.5 123.3 14.8 123.0 14.7 123.0 14.6 122.8
1988-10-24 18:00:00 15.2 121.7 15.2 121.7 15.2 121.7 15.2 121.8 15.4 121.6
1988-10-25 00:00:00 16.0 120.4 16.0 120.0 15.9 120.1 15.8 120.3 16.0 120.4
1988-10-25 06:00:00 16.2 118.9 16.3 119.0 16.4 118.9 15.9 119.1 16.3 119.1
1988-10-25 12:00:00 16.4 118.0 16.4 118.0 16.5 118.2 15.7 117.9 16.4 118.0
1988-10-25 18:00:00 16.5 117.6 16.0 118.0 16.2 117.6 16.1 117.9 16.4 117.5
1988-10-26 00:00:00 16.5 117.1 16.5 117.5 16.5 117.1 16.7 117.2 16.5 117.1
1988-10-26 06:00:00 16.8 116.6 16.9 117.1 17.0 116.7 16.7 116.9 16.8 116.5
1988-10-26 12:00:00 17.2 115.8 17.2 116.5 17.3 116.1 17.2 116.5 17.2 115.8
jtwc_wp tokyo cma hko td9636
1988-10-26 18:00:00 17.6 115.0 17.5 115.8 17.7 115.3 17.6 115.4 17.6 115.1
1988-10-27 00:00:00 17.9 114.3 17.6 114.5 18.1 114.4 17.8 114.0 17.9 114.3
1988-10-27 06:00:00 18.2 113.3 17.8 113.2 18.2 113.4 17.9 113.3 18.2 113.4
1988-10-27 12:00:00 18.4 112.5 18.1 112.4 18.2 112.5 18.1 112.5 18.4 112.5
1988-10-27 18:00:00 18.5 111.7 18.5 111.5 18.5 111.5 18.3 111.9 18.7 111.7
1988-10-28 00:00:00 18.8 110.9 18.8 110.8 18.7 110.7 18.5 111.3 18.8 110.9
1988-10-28 06:00:00 18.7 110.1 18.9 110.5 18.8 110.2 18.8 110.4 18.7 110.1
1988-10-28 12:00:00 18.4 109.3 18.8 110.1 18.9 109.6 18.8 109.5 18.4 109.3
1988-10-28 18:00:00 18.2 108.5 18.5 110.0 18.3 109.2 18.2 108.8 18.2 108.5
1988-10-29 00:00:00 18.0 110.0 17.8 109.3
1988-10-29 06:00:00 17.5 110.0 17.5 109.5
1988-10-29 12:00:00 17.5 110.5

top of pageTrack Data:Intensity

jtwc_wp tokyo cma hko td9636
Date Wind Pres Wind Pres Wind Pres Wind Pres Wind Pres
1988-10-20 12:00:00 25. 25.
1988-10-20 18:00:00 30. 1004. 25.
1988-10-21 00:00:00 30. 1004. 29. 1000. 30.
1988-10-21 06:00:00 30. 1000. 29. 998. 25. 1001. 30.
1988-10-21 12:00:00 35. 40. 996. 39. 995. 30. 998. 35.
1988-10-21 18:00:00 40. 40. 992. 39. 995. 35. 995. 35.
1988-10-22 00:00:00 45. 45. 990. 49. 990. 40. 992. 45.
1988-10-22 06:00:00 50. 50. 985. 49. 985. 50. 985. 45.
1988-10-22 12:00:00 60. 55. 980. 49. 985. 55. 980. 60.
1988-10-22 18:00:00 65. 60. 975. 58. 975. 60. 975. 65.
1988-10-23 00:00:00 70. 65. 970. 58. 975. 65. 972. 70.
1988-10-23 06:00:00 80. 65. 970. 68. 970. 65. 970. 70.
1988-10-23 12:00:00 90. 70. 965. 68. 970. 70. 965. 90.
1988-10-23 18:00:00 95. 70. 965. 78. 965. 75. 960. 90.
1988-10-24 00:00:00 100. 70. 965. 78. 965. 80. 950. 100.
1988-10-24 06:00:00 110. 70. 960. 78. 965. 95. 940. 100.
1988-10-24 12:00:00 125. 75. 950. 87. 960. 110. 930. 125.
1988-10-24 18:00:00 120. 75. 955. 87. 960. 105. 935. 125.
1988-10-25 00:00:00 90. 75. 960. 78. 960. 95. 945. 90.
1988-10-25 06:00:00 70. 75. 965. 78. 960. 85. 955. 90.
1988-10-25 12:00:00 65. 75. 970. 78. 965. 75. 965. 65.
1988-10-25 18:00:00 65. 70. 970. 68. 970. 70. 968. 65.
1988-10-26 00:00:00 65. 65. 970. 68. 970. 70. 968. 65.
1988-10-26 06:00:00 65. 65. 970. 68. 975. 65. 970. 65.
1988-10-26 12:00:00 65. 60. 975. 58. 980. 65. 970. 65.
jtwc_wp tokyo cma hko td9636
1988-10-26 18:00:00 65. 60. 975. 58. 980. 65. 970. 65.
1988-10-27 00:00:00 60. 55. 980. 58. 980. 60. 975. 60.
1988-10-27 06:00:00 60. 55. 985. 58. 980. 60. 975. 60.
1988-10-27 12:00:00 55. 50. 985. 58. 980. 55. 980. 55.
1988-10-27 18:00:00 50. 50. 990. 58. 980. 45. 985. 55.
1988-10-28 00:00:00 45. 50. 992. 52. 980. 45. 985. 45.
1988-10-28 06:00:00 35. 45. 994. 49. 980. 40. 990. 45.
1988-10-28 12:00:00 30. 40. 996. 39. 990. 35. 995. 30.
1988-10-28 18:00:00 25. 1004. 39. 995. 30. 1000. 25.
1988-10-29 00:00:00 1008. 29. 1002.
1988-10-29 06:00:00 1008. 23. 1006.
1988-10-29 12:00:00 1008.

top of page Links to source data

Source Source file Format
jtwc_wp bwp231988.txt ATCF
tokyo bst_all.txt:Line=37451:RUBY:8828 JMA text table
cma CH1988BST.txt:Storm=32:Ruby CMA text table
hko tc-besttrack-data.txt:Line=19691:RUBY HKO Text table
td9636 cons_worldwide_trop_cyclone_18710101-19891231-003:Line=31595 TD 9636